sensor_id;sensor_type;location;lat;lon;timestamp;P1;durP1;ratioP1;P2;durP2;ratioP2
17422;SDS011;8829;47.932;7.810;2023-07-24T00:00:49;5.97;;;5.30;;
17422;SDS011;8829;47.932;7.810;2023-07-24T00:03:16;7.97;;;5.40;;
17422;SDS011;8829;47.932;7.810;2023-07-24T00:05:43;6.20;;;4.97;;
17422;SDS011;8829;47.932;7.810;2023-07-24T00:08:11;7.07;;;4.97;;
17422;SDS011;8829;47.932;7.810;2023-07-24T00:10:38;8.17;;;5.00;;
17422;SDS011;8829;47.932;7.810;2023-07-24T00:13:05;4.93;;;4.40;;
17422;SDS011;8829;47.932;7.810;2023-07-24T00:15:32;5.27;;;4.30;;
17422;SDS011;8829;47.932;7.810;2023-07-24T00:18:00;7.33;;;4.87;;
17422;SDS011;8829;47.932;7.810;2023-07-24T00:20:27;6.93;;;4.77;;
17422;SDS011;8829;47.932;7.810;2023-07-24T00:22:53;7.27;;;4.50;;
17422;SDS011;8829;47.932;7.810;2023-07-24T00:25:21;7.50;;;5.07;;
17422;SDS011;8829;47.932;7.810;2023-07-24T00:27:48;5.23;;;4.43;;
17422;SDS011;8829;47.932;7.810;2023-07-24T00:30:15;6.20;;;5.10;;
17422;SDS011;8829;47.932;7.810;2023-07-24T00:32:43;7.13;;;4.93;;
17422;SDS011;8829;47.932;7.810;2023-07-24T00:35:09;6.17;;;4.57;;
17422;SDS011;8829;47.932;7.810;2023-07-24T00:37:37;6.23;;;4.80;;
17422;SDS011;8829;47.932;7.810;2023-07-24T00:40:04;5.43;;;4.63;;
17422;SDS011;8829;47.932;7.810;2023-07-24T00:42:35;6.20;;;4.97;;
17422;SDS011;8829;47.932;7.810;2023-07-24T00:45:02;7.00;;;4.77;;
17422;SDS011;8829;47.932;7.810;2023-07-24T00:47:29;6.23;;;4.63;;
17422;SDS011;8829;47.932;7.810;2023-07-24T00:49:55;9.73;;;4.57;;
17422;SDS011;8829;47.932;7.810;2023-07-24T00:52:23;6.07;;;4.77;;
17422;SDS011;8829;47.932;7.810;2023-07-24T00:54:49;6.13;;;4.60;;
17422;SDS011;8829;47.932;7.810;2023-07-24T00:57:16;5.27;;;4.43;;
17422;SDS011;8829;47.932;7.810;2023-07-24T00:59:45;5.93;;;4.60;;
17422;SDS011;8829;47.932;7.810;2023-07-24T01:02:11;5.87;;;4.63;;
17422;SDS011;8829;47.932;7.810;2023-07-24T01:04:38;7.30;;;4.80;;
17422;SDS011;8829;47.932;7.810;2023-07-24T01:07:05;7.00;;;5.10;;
17422;SDS011;8829;47.932;7.810;2023-07-24T01:09:32;5.60;;;4.80;;
17422;SDS011;8829;47.932;7.810;2023-07-24T01:12:00;5.90;;;4.93;;
17422;SDS011;8829;47.932;7.810;2023-07-24T01:14:32;8.33;;;4.90;;
17422;SDS011;8829;47.932;7.810;2023-07-24T01:17:08;7.37;;;5.27;;
17422;SDS011;8829;47.932;7.810;2023-07-24T01:19:40;9.00;;;4.97;;
17422;SDS011;8829;47.932;7.810;2023-07-24T01:22:10;6.50;;;4.50;;
17422;SDS011;8829;47.932;7.810;2023-07-24T01:24:47;4.90;;;4.40;;
17422;SDS011;8829;47.932;7.810;2023-07-24T01:27:25;5.70;;;4.90;;
17422;SDS011;8829;47.932;7.810;2023-07-24T01:29:52;5.63;;;4.70;;
17422;SDS011;8829;47.932;7.810;2023-07-24T01:32:20;6.37;;;4.87;;
17422;SDS011;8829;47.932;7.810;2023-07-24T01:34:47;7.00;;;4.90;;
17422;SDS011;8829;47.932;7.810;2023-07-24T01:37:14;6.27;;;4.87;;
17422;SDS011;8829;47.932;7.810;2023-07-24T01:39:43;5.27;;;4.77;;
17422;SDS011;8829;47.932;7.810;2023-07-24T01:42:11;6.77;;;4.73;;
17422;SDS011;8829;47.932;7.810;2023-07-24T01:44:40;7.30;;;5.33;;
17422;SDS011;8829;47.932;7.810;2023-07-24T01:47:06;7.83;;;5.70;;
17422;SDS011;8829;47.932;7.810;2023-07-24T01:49:33;9.80;;;5.63;;
17422;SDS011;8829;47.932;7.810;2023-07-24T01:52:00;6.27;;;4.83;;
17422;SDS011;8829;47.932;7.810;2023-07-24T01:54:26;6.10;;;4.70;;
17422;SDS011;8829;47.932;7.810;2023-07-24T01:56:53;6.57;;;4.93;;
17422;SDS011;8829;47.932;7.810;2023-07-24T01:59:20;7.83;;;4.77;;
17422;SDS011;8829;47.932;7.810;2023-07-24T02:01:48;6.40;;;4.67;;
17422;SDS011;8829;47.932;7.810;2023-07-24T02:04:14;6.03;;;4.77;;
17422;SDS011;8829;47.932;7.810;2023-07-24T02:06:41;8.20;;;5.47;;
17422;SDS011;8829;47.932;7.810;2023-07-24T02:09:08;6.33;;;5.20;;
17422;SDS011;8829;47.932;7.810;2023-07-24T02:11:35;7.93;;;5.07;;
17422;SDS011;8829;47.932;7.810;2023-07-24T02:14:02;7.57;;;4.53;;
17422;SDS011;8829;47.932;7.810;2023-07-24T02:16:28;7.10;;;5.37;;
17422;SDS011;8829;47.932;7.810;2023-07-24T02:18:56;6.87;;;4.43;;
17422;SDS011;8829;47.932;7.810;2023-07-24T02:21:23;6.10;;;5.00;;
17422;SDS011;8829;47.932;7.810;2023-07-24T02:23:50;5.30;;;4.40;;
17422;SDS011;8829;47.932;7.810;2023-07-24T02:26:18;9.57;;;5.77;;
17422;SDS011;8829;47.932;7.810;2023-07-24T02:28:45;7.57;;;5.33;;
17422;SDS011;8829;47.932;7.810;2023-07-24T02:31:11;6.07;;;4.60;;
17422;SDS011;8829;47.932;7.810;2023-07-24T02:33:39;5.90;;;4.90;;
17422;SDS011;8829;47.932;7.810;2023-07-24T02:36:07;4.97;;;4.47;;
17422;SDS011;8829;47.932;7.810;2023-07-24T02:38:34;6.00;;;4.53;;
17422;SDS011;8829;47.932;7.810;2023-07-24T02:41:00;7.53;;;5.37;;
17422;SDS011;8829;47.932;7.810;2023-07-24T02:43:27;6.70;;;5.00;;
17422;SDS011;8829;47.932;7.810;2023-07-24T02:45:54;5.87;;;5.03;;
17422;SDS011;8829;47.932;7.810;2023-07-24T02:48:20;8.20;;;5.33;;
17422;SDS011;8829;47.932;7.810;2023-07-24T02:50:47;6.93;;;4.87;;
17422;SDS011;8829;47.932;7.810;2023-07-24T02:53:17;8.03;;;5.50;;
17422;SDS011;8829;47.932;7.810;2023-07-24T02:55:43;5.47;;;4.63;;
17422;SDS011;8829;47.932;7.810;2023-07-24T02:58:10;6.63;;;5.03;;
17422;SDS011;8829;47.932;7.810;2023-07-24T03:00:37;7.70;;;5.10;;
17422;SDS011;8829;47.932;7.810;2023-07-24T03:03:04;5.37;;;4.63;;
17422;SDS011;8829;47.932;7.810;2023-07-24T03:05:31;8.83;;;5.17;;
17422;SDS011;8829;47.932;7.810;2023-07-24T03:07:59;6.20;;;4.60;;
17422;SDS011;8829;47.932;7.810;2023-07-24T03:10:27;10.00;;;5.47;;
17422;SDS011;8829;47.932;7.810;2023-07-24T03:12:54;6.43;;;5.00;;
17422;SDS011;8829;47.932;7.810;2023-07-24T03:15:21;9.57;;;5.67;;
17422;SDS011;8829;47.932;7.810;2023-07-24T03:17:48;6.60;;;4.40;;
17422;SDS011;8829;47.932;7.810;2023-07-24T03:20:15;8.07;;;4.90;;
17422;SDS011;8829;47.932;7.810;2023-07-24T03:22:43;8.10;;;5.30;;
17422;SDS011;8829;47.932;7.810;2023-07-24T03:25:10;6.57;;;4.90;;
17422;SDS011;8829;47.932;7.810;2023-07-24T03:27:38;6.10;;;4.80;;
17422;SDS011;8829;47.932;7.810;2023-07-24T03:30:06;6.13;;;5.00;;
17422;SDS011;8829;47.932;7.810;2023-07-24T03:32:33;7.37;;;5.03;;
17422;SDS011;8829;47.932;7.810;2023-07-24T03:35:00;6.90;;;4.97;;
17422;SDS011;8829;47.932;7.810;2023-07-24T03:37:27;4.97;;;4.43;;
17422;SDS011;8829;47.932;7.810;2023-07-24T03:39:54;7.50;;;4.93;;
17422;SDS011;8829;47.932;7.810;2023-07-24T03:42:24;6.67;;;4.83;;
17422;SDS011;8829;47.932;7.810;2023-07-24T03:44:54;7.50;;;4.70;;
17422;SDS011;8829;47.932;7.810;2023-07-24T03:47:21;6.10;;;5.07;;
17422;SDS011;8829;47.932;7.810;2023-07-24T03:49:48;5.70;;;4.73;;
17422;SDS011;8829;47.932;7.810;2023-07-24T03:52:14;7.37;;;4.80;;
17422;SDS011;8829;47.932;7.810;2023-07-24T03:54:41;6.13;;;4.60;;
17422;SDS011;8829;47.932;7.810;2023-07-24T03:57:08;8.27;;;5.27;;
17422;SDS011;8829;47.932;7.810;2023-07-24T03:59:35;8.03;;;5.27;;
17422;SDS011;8829;47.932;7.810;2023-07-24T04:02:03;7.57;;;5.07;;
17422;SDS011;8829;47.932;7.810;2023-07-24T04:04:30;7.47;;;4.73;;
17422;SDS011;8829;47.932;7.810;2023-07-24T04:06:57;6.57;;;5.10;;
17422;SDS011;8829;47.932;7.810;2023-07-24T04:09:24;7.63;;;4.83;;
17422;SDS011;8829;47.932;7.810;2023-07-24T04:11:51;7.70;;;4.60;;
17422;SDS011;8829;47.932;7.810;2023-07-24T04:14:17;7.57;;;5.47;;
17422;SDS011;8829;47.932;7.810;2023-07-24T04:16:44;6.70;;;5.40;;
17422;SDS011;8829;47.932;7.810;2023-07-24T04:19:12;8.23;;;5.10;;
17422;SDS011;8829;47.932;7.810;2023-07-24T04:21:39;7.47;;;4.63;;
17422;SDS011;8829;47.932;7.810;2023-07-24T04:24:05;7.33;;;4.80;;
17422;SDS011;8829;47.932;7.810;2023-07-24T04:26:32;6.17;;;5.27;;
17422;SDS011;8829;47.932;7.810;2023-07-24T04:28:59;7.23;;;5.13;;
17422;SDS011;8829;47.932;7.810;2023-07-24T04:31:26;6.77;;;4.93;;
17422;SDS011;8829;47.932;7.810;2023-07-24T04:33:52;6.33;;;5.37;;
17422;SDS011;8829;47.932;7.810;2023-07-24T04:36:20;9.20;;;5.33;;
17422;SDS011;8829;47.932;7.810;2023-07-24T04:38:47;12.30;;;5.07;;
17422;SDS011;8829;47.932;7.810;2023-07-24T04:41:13;8.80;;;5.23;;
17422;SDS011;8829;47.932;7.810;2023-07-24T04:43:41;6.30;;;4.83;;
17422;SDS011;8829;47.932;7.810;2023-07-24T04:46:07;6.23;;;4.77;;
17422;SDS011;8829;47.932;7.810;2023-07-24T04:48:34;4.93;;;4.03;;
17422;SDS011;8829;47.932;7.810;2023-07-24T04:51:01;6.03;;;4.63;;
17422;SDS011;8829;47.932;7.810;2023-07-24T04:53:30;6.23;;;4.30;;
17422;SDS011;8829;47.932;7.810;2023-07-24T04:55:57;7.20;;;4.57;;
17422;SDS011;8829;47.932;7.810;2023-07-24T04:58:24;7.90;;;4.77;;
17422;SDS011;8829;47.932;7.810;2023-07-24T05:00:50;6.07;;;4.10;;
17422;SDS011;8829;47.932;7.810;2023-07-24T05:03:17;5.93;;;4.17;;
17422;SDS011;8829;47.932;7.810;2023-07-24T05:05:47;6.87;;;4.37;;
17422;SDS011;8829;47.932;7.810;2023-07-24T05:08:14;6.53;;;4.47;;
17422;SDS011;8829;47.932;7.810;2023-07-24T05:10:42;6.40;;;4.33;;
17422;SDS011;8829;47.932;7.810;2023-07-24T05:13:09;5.93;;;3.73;;
17422;SDS011;8829;47.932;7.810;2023-07-24T05:15:36;5.67;;;3.77;;
17422;SDS011;8829;47.932;7.810;2023-07-24T05:18:02;4.77;;;3.87;;
17422;SDS011;8829;47.932;7.810;2023-07-24T05:20:29;4.67;;;3.83;;
17422;SDS011;8829;47.932;7.810;2023-07-24T05:22:56;8.30;;;4.47;;
17422;SDS011;8829;47.932;7.810;2023-07-24T05:25:22;5.40;;;4.10;;
17422;SDS011;8829;47.932;7.810;2023-07-24T05:27:50;5.40;;;3.80;;
17422;SDS011;8829;47.932;7.810;2023-07-24T05:30:17;4.43;;;3.77;;
17422;SDS011;8829;47.932;7.810;2023-07-24T05:32:44;4.87;;;3.77;;
17422;SDS011;8829;47.932;7.810;2023-07-24T05:35:10;4.33;;;3.93;;
17422;SDS011;8829;47.932;7.810;2023-07-24T05:37:37;4.57;;;4.07;;
17422;SDS011;8829;47.932;7.810;2023-07-24T05:40:04;5.33;;;3.60;;
17422;SDS011;8829;47.932;7.810;2023-07-24T05:42:32;4.87;;;3.80;;
17422;SDS011;8829;47.932;7.810;2023-07-24T05:45:05;3.63;;;3.33;;
17422;SDS011;8829;47.932;7.810;2023-07-24T05:47:33;5.77;;;4.07;;
17422;SDS011;8829;47.932;7.810;2023-07-24T05:50:00;5.50;;;4.17;;
17422;SDS011;8829;47.932;7.810;2023-07-24T05:52:27;6.77;;;3.53;;
17422;SDS011;8829;47.932;7.810;2023-07-24T05:54:53;4.23;;;3.40;;
17422;SDS011;8829;47.932;7.810;2023-07-24T05:57:20;3.47;;;2.97;;
17422;SDS011;8829;47.932;7.810;2023-07-24T05:59:47;5.00;;;3.17;;
17422;SDS011;8829;47.932;7.810;2023-07-24T06:02:16;3.40;;;3.10;;
17422;SDS011;8829;47.932;7.810;2023-07-24T06:04:43;4.23;;;2.63;;
17422;SDS011;8829;47.932;7.810;2023-07-24T06:07:10;3.30;;;3.00;;
17422;SDS011;8829;47.932;7.810;2023-07-24T06:09:36;3.40;;;3.10;;
17422;SDS011;8829;47.932;7.810;2023-07-24T06:12:03;3.30;;;3.00;;
17422;SDS011;8829;47.932;7.810;2023-07-24T06:14:30;4.70;;;2.83;;
17422;SDS011;8829;47.932;7.810;2023-07-24T06:16:57;2.77;;;2.50;;
17422;SDS011;8829;47.932;7.810;2023-07-24T06:19:25;3.07;;;2.60;;
17422;SDS011;8829;47.932;7.810;2023-07-24T06:21:52;3.53;;;3.23;;
17422;SDS011;8829;47.932;7.810;2023-07-24T06:24:18;3.13;;;2.63;;
17422;SDS011;8829;47.932;7.810;2023-07-24T06:26:48;4.67;;;2.73;;
17422;SDS011;8829;47.932;7.810;2023-07-24T06:29:15;4.80;;;2.63;;
17422;SDS011;8829;47.932;7.810;2023-07-24T06:31:42;4.13;;;2.83;;
17422;SDS011;8829;47.932;7.810;2023-07-24T06:34:08;3.30;;;3.00;;
17422;SDS011;8829;47.932;7.810;2023-07-24T06:36:36;3.77;;;2.63;;
17422;SDS011;8829;47.932;7.810;2023-07-24T06:39:03;2.57;;;2.30;;
17422;SDS011;8829;47.932;7.810;2023-07-24T06:41:30;2.93;;;2.63;;
17422;SDS011;8829;47.932;7.810;2023-07-24T06:43:57;3.20;;;2.90;;
17422;SDS011;8829;47.932;7.810;2023-07-24T06:46:23;4.87;;;2.40;;
17422;SDS011;8829;47.932;7.810;2023-07-24T06:48:50;3.37;;;2.67;;
17422;SDS011;8829;47.932;7.810;2023-07-24T06:51:17;3.63;;;2.77;;
17422;SDS011;8829;47.932;7.810;2023-07-24T06:53:45;2.53;;;2.20;;
17422;SDS011;8829;47.932;7.810;2023-07-24T06:56:11;3.60;;;3.20;;
17422;SDS011;8829;47.932;7.810;2023-07-24T06:58:38;3.67;;;2.80;;
17422;SDS011;8829;47.932;7.810;2023-07-24T07:01:05;3.13;;;2.80;;
17422;SDS011;8829;47.932;7.810;2023-07-24T07:03:35;3.93;;;2.60;;
17422;SDS011;8829;47.932;7.810;2023-07-24T07:06:01;3.13;;;2.83;;
17422;SDS011;8829;47.932;7.810;2023-07-24T07:08:29;3.13;;;2.70;;
17422;SDS011;8829;47.932;7.810;2023-07-24T07:10:57;3.83;;;2.73;;
17422;SDS011;8829;47.932;7.810;2023-07-24T07:13:25;3.13;;;2.70;;
17422;SDS011;8829;47.932;7.810;2023-07-24T07:15:51;4.97;;;2.77;;
17422;SDS011;8829;47.932;7.810;2023-07-24T07:18:18;3.33;;;2.87;;
17422;SDS011;8829;47.932;7.810;2023-07-24T07:20:45;3.30;;;3.00;;
17422;SDS011;8829;47.932;7.810;2023-07-24T07:23:12;4.33;;;2.77;;
17422;SDS011;8829;47.932;7.810;2023-07-24T07:25:39;4.83;;;3.07;;
17422;SDS011;8829;47.932;7.810;2023-07-24T07:28:09;3.87;;;3.00;;
17422;SDS011;8829;47.932;7.810;2023-07-24T07:30:36;5.07;;;3.67;;
17422;SDS011;8829;47.932;7.810;2023-07-24T07:33:02;5.70;;;3.30;;
17422;SDS011;8829;47.932;7.810;2023-07-24T07:35:30;3.90;;;3.10;;
17422;SDS011;8829;47.932;7.810;2023-07-24T07:37:57;3.70;;;3.20;;
17422;SDS011;8829;47.932;7.810;2023-07-24T07:40:26;5.53;;;3.60;;
17422;SDS011;8829;47.932;7.810;2023-07-24T07:42:53;3.30;;;3.10;;
17422;SDS011;8829;47.932;7.810;2023-07-24T07:45:22;4.23;;;3.20;;
17422;SDS011;8829;47.932;7.810;2023-07-24T07:47:49;4.27;;;3.17;;
17422;SDS011;8829;47.932;7.810;2023-07-24T07:50:18;4.53;;;2.83;;
17422;SDS011;8829;47.932;7.810;2023-07-24T07:52:44;3.57;;;3.20;;
17422;SDS011;8829;47.932;7.810;2023-07-24T07:55:11;3.07;;;2.77;;
17422;SDS011;8829;47.932;7.810;2023-07-24T07:57:38;4.93;;;3.53;;
17422;SDS011;8829;47.932;7.810;2023-07-24T08:00:06;4.93;;;3.73;;
17422;SDS011;8829;47.932;7.810;2023-07-24T08:02:34;3.67;;;3.37;;
17422;SDS011;8829;47.932;7.810;2023-07-24T08:05:04;3.90;;;3.50;;
17422;SDS011;8829;47.932;7.810;2023-07-24T08:07:32;4.17;;;3.73;;
17422;SDS011;8829;47.932;7.810;2023-07-24T08:09:59;4.03;;;3.63;;
17422;SDS011;8829;47.932;7.810;2023-07-24T08:12:25;3.90;;;3.43;;
17422;SDS011;8829;47.932;7.810;2023-07-24T08:14:52;4.40;;;3.50;;
17422;SDS011;8829;47.932;7.810;2023-07-24T08:17:19;5.30;;;3.10;;
17422;SDS011;8829;47.932;7.810;2023-07-24T08:19:47;6.50;;;3.60;;
17422;SDS011;8829;47.932;7.810;2023-07-24T08:22:14;4.30;;;3.77;;
17422;SDS011;8829;47.932;7.810;2023-07-24T08:24:40;3.60;;;3.30;;
17422;SDS011;8829;47.932;7.810;2023-07-24T08:27:07;3.67;;;3.30;;
17422;SDS011;8829;47.932;7.810;2023-07-24T08:29:34;3.83;;;3.53;;
17422;SDS011;8829;47.932;7.810;2023-07-24T08:32:03;4.17;;;3.37;;
17422;SDS011;8829;47.932;7.810;2023-07-24T08:34:30;3.43;;;3.17;;
17422;SDS011;8829;47.932;7.810;2023-07-24T08:36:58;5.17;;;4.27;;
17422;SDS011;8829;47.932;7.810;2023-07-24T08:39:25;4.20;;;3.80;;
17422;SDS011;8829;47.932;7.810;2023-07-24T08:41:51;4.67;;;4.13;;
17422;SDS011;8829;47.932;7.810;2023-07-24T08:44:18;5.23;;;4.00;;
17422;SDS011;8829;47.932;7.810;2023-07-24T08:46:46;11.57;;;5.53;;
17422;SDS011;8829;47.932;7.810;2023-07-24T08:49:15;10.80;;;5.67;;
17422;SDS011;8829;47.932;7.810;2023-07-24T08:51:42;6.97;;;4.60;;
17422;SDS011;8829;47.932;7.810;2023-07-24T08:54:11;6.33;;;4.67;;
17422;SDS011;8829;47.932;7.810;2023-07-24T08:56:39;8.43;;;5.43;;
17422;SDS011;8829;47.932;7.810;2023-07-24T08:59:06;7.00;;;4.77;;
17422;SDS011;8829;47.932;7.810;2023-07-24T09:01:33;6.00;;;4.17;;
17422;SDS011;8829;47.932;7.810;2023-07-24T09:04:00;6.13;;;4.77;;
17422;SDS011;8829;47.932;7.810;2023-07-24T09:06:27;6.87;;;4.67;;
17422;SDS011;8829;47.932;7.810;2023-07-24T09:08:54;4.80;;;4.30;;
17422;SDS011;8829;47.932;7.810;2023-07-24T09:11:22;5.87;;;4.40;;
17422;SDS011;8829;47.932;7.810;2023-07-24T09:13:49;5.00;;;4.50;;
17422;SDS011;8829;47.932;7.810;2023-07-24T09:16:22;10.53;;;3.80;;
17422;SDS011;8829;47.932;7.810;2023-07-24T09:18:49;6.60;;;4.33;;
17422;SDS011;8829;47.932;7.810;2023-07-24T09:21:26;5.77;;;3.70;;
17422;SDS011;8829;47.932;7.810;2023-07-24T09:23:54;3.33;;;2.03;;
17422;SDS011;8829;47.932;7.810;2023-07-24T09:26:22;3.60;;;1.77;;
17422;SDS011;8829;47.932;7.810;2023-07-24T09:28:51;4.47;;;1.50;;
17422;SDS011;8829;47.932;7.810;2023-07-24T09:31:18;1.47;;;1.30;;
17422;SDS011;8829;47.932;7.810;2023-07-24T09:33:45;2.50;;;1.00;;
17422;SDS011;8829;47.932;7.810;2023-07-24T09:36:12;0.73;;;0.73;;
17422;SDS011;8829;47.932;7.810;2023-07-24T09:38:39;0.80;;;0.80;;
17422;SDS011;8829;47.932;7.810;2023-07-24T09:41:07;1.33;;;1.20;;
17422;SDS011;8829;47.932;7.810;2023-07-24T09:43:35;1.40;;;1.17;;
17422;SDS011;8829;47.932;7.810;2023-07-24T09:46:02;0.80;;;0.80;;
17422;SDS011;8829;47.932;7.810;2023-07-24T09:48:31;1.43;;;1.10;;
17422;SDS011;8829;47.932;7.810;2023-07-24T09:50:59;1.27;;;0.90;;
17422;SDS011;8829;47.932;7.810;2023-07-24T09:53:31;1.40;;;1.00;;
17422;SDS011;8829;47.932;7.810;2023-07-24T09:56:01;2.13;;;1.40;;
17422;SDS011;8829;47.932;7.810;2023-07-24T09:58:29;1.50;;;1.27;;
17422;SDS011;8829;47.932;7.810;2023-07-24T10:00:58;7.07;;;6.37;;
17422;SDS011;8829;47.932;7.810;2023-07-24T10:03:25;1.40;;;1.30;;
17422;SDS011;8829;47.932;7.810;2023-07-24T10:05:52;2.43;;;2.27;;
17422;SDS011;8829;47.932;7.810;2023-07-24T10:08:20;1.43;;;0.93;;
17422;SDS011;8829;47.932;7.810;2023-07-24T10:10:47;1.60;;;1.47;;
17422;SDS011;8829;47.932;7.810;2023-07-24T10:13:16;1.60;;;1.50;;
17422;SDS011;8829;47.932;7.810;2023-07-24T10:15:44;2.60;;;1.93;;
17422;SDS011;8829;47.932;7.810;2023-07-24T10:18:14;2.60;;;2.10;;
17422;SDS011;8829;47.932;7.810;2023-07-24T10:20:42;2.87;;;2.00;;
17422;SDS011;8829;47.932;7.810;2023-07-24T10:23:10;4.40;;;2.07;;
17422;SDS011;8829;47.932;7.810;2023-07-24T10:25:43;3.07;;;2.13;;
17422;SDS011;8829;47.932;7.810;2023-07-24T10:28:11;2.83;;;2.53;;
17422;SDS011;8829;47.932;7.810;2023-07-24T10:30:41;3.30;;;2.57;;
17422;SDS011;8829;47.932;7.810;2023-07-24T10:33:09;2.83;;;2.47;;
17422;SDS011;8829;47.932;7.810;2023-07-24T10:35:38;3.10;;;2.80;;
17422;SDS011;8829;47.932;7.810;2023-07-24T10:38:05;8.20;;;7.07;;
17422;SDS011;8829;47.932;7.810;2023-07-24T10:40:32;2.63;;;2.40;;
17422;SDS011;8829;47.932;7.810;2023-07-24T10:43:00;2.67;;;2.47;;
17422;SDS011;8829;47.932;7.810;2023-07-24T10:45:42;2.60;;;2.20;;
17422;SDS011;8829;47.932;7.810;2023-07-24T10:48:13;2.27;;;2.10;;
17422;SDS011;8829;47.932;7.810;2023-07-24T10:50:42;1.70;;;1.60;;
17422;SDS011;8829;47.932;7.810;2023-07-24T10:53:09;1.77;;;1.60;;
17422;SDS011;8829;47.932;7.810;2023-07-24T10:55:37;1.57;;;1.30;;
17422;SDS011;8829;47.932;7.810;2023-07-24T10:58:04;2.57;;;1.83;;
17422;SDS011;8829;47.932;7.810;2023-07-24T11:00:31;2.03;;;1.93;;
17422;SDS011;8829;47.932;7.810;2023-07-24T11:02:59;2.43;;;2.20;;
17422;SDS011;8829;47.932;7.810;2023-07-24T11:05:26;1.90;;;1.80;;
17422;SDS011;8829;47.932;7.810;2023-07-24T11:07:54;1.73;;;1.47;;
17422;SDS011;8829;47.932;7.810;2023-07-24T11:10:21;1.77;;;1.67;;
17422;SDS011;8829;47.932;7.810;2023-07-24T11:12:49;2.00;;;1.90;;
17422;SDS011;8829;47.932;7.810;2023-07-24T11:15:16;2.23;;;1.73;;
17422;SDS011;8829;47.932;7.810;2023-07-24T11:17:50;2.13;;;1.93;;
17422;SDS011;8829;47.932;7.810;2023-07-24T11:20:17;1.50;;;1.40;;
17422;SDS011;8829;47.932;7.810;2023-07-24T11:22:44;1.73;;;1.63;;
17422;SDS011;8829;47.932;7.810;2023-07-24T11:25:12;1.70;;;1.60;;
17422;SDS011;8829;47.932;7.810;2023-07-24T11:27:39;1.70;;;1.60;;
17422;SDS011;8829;47.932;7.810;2023-07-24T11:30:09;1.63;;;1.53;;
17422;SDS011;8829;47.932;7.810;2023-07-24T11:32:38;2.27;;;1.77;;
17422;SDS011;8829;47.932;7.810;2023-07-24T11:35:06;1.63;;;1.53;;
17422;SDS011;8829;47.932;7.810;2023-07-24T11:37:34;1.70;;;1.60;;
17422;SDS011;8829;47.932;7.810;2023-07-24T11:40:02;2.33;;;1.80;;
17422;SDS011;8829;47.932;7.810;2023-07-24T11:42:37;1.60;;;1.50;;
17422;SDS011;8829;47.932;7.810;2023-07-24T11:45:05;1.93;;;1.73;;
17422;SDS011;8829;47.932;7.810;2023-07-24T11:47:41;2.00;;;1.87;;
17422;SDS011;8829;47.932;7.810;2023-07-24T11:50:08;1.60;;;1.50;;
17422;SDS011;8829;47.932;7.810;2023-07-24T11:52:38;1.60;;;1.50;;
17422;SDS011;8829;47.932;7.810;2023-07-24T11:55:08;1.80;;;1.70;;
17422;SDS011;8829;47.932;7.810;2023-07-24T11:57:35;2.67;;;2.00;;
17422;SDS011;8829;47.932;7.810;2023-07-24T12:00:04;2.73;;;1.80;;
17422;SDS011;8829;47.932;7.810;2023-07-24T12:02:33;2.20;;;2.00;;
17422;SDS011;8829;47.932;7.810;2023-07-24T12:05:00;1.70;;;1.60;;
17422;SDS011;8829;47.932;7.810;2023-07-24T12:07:31;1.90;;;1.80;;
17422;SDS011;8829;47.932;7.810;2023-07-24T12:10:00;2.23;;;2.03;;
17422;SDS011;8829;47.932;7.810;2023-07-24T12:12:36;1.70;;;1.60;;
17422;SDS011;8829;47.932;7.810;2023-07-24T12:15:06;3.57;;;1.90;;
17422;SDS011;8829;47.932;7.810;2023-07-24T12:17:33;1.90;;;1.80;;
17422;SDS011;8829;47.932;7.810;2023-07-24T12:20:00;2.70;;;2.50;;
17422;SDS011;8829;47.932;7.810;2023-07-24T12:22:27;2.33;;;2.17;;
17422;SDS011;8829;47.932;7.810;2023-07-24T12:24:54;1.60;;;1.50;;
17422;SDS011;8829;47.932;7.810;2023-07-24T12:27:20;1.93;;;1.77;;
17422;SDS011;8829;47.932;7.810;2023-07-24T12:29:47;2.20;;;2.00;;
17422;SDS011;8829;47.932;7.810;2023-07-24T12:32:15;2.20;;;2.00;;
17422;SDS011;8829;47.932;7.810;2023-07-24T12:34:43;4.10;;;3.27;;
17422;SDS011;8829;47.932;7.810;2023-07-24T12:37:09;3.57;;;3.27;;
17422;SDS011;8829;47.932;7.810;2023-07-24T12:39:36;3.47;;;2.57;;
17422;SDS011;8829;47.932;7.810;2023-07-24T12:42:03;2.57;;;2.10;;
17422;SDS011;8829;47.932;7.810;2023-07-24T12:44:31;2.60;;;2.00;;
17422;SDS011;8829;47.932;7.810;2023-07-24T12:46:57;1.70;;;1.60;;
17422;SDS011;8829;47.932;7.810;2023-07-24T12:49:28;2.23;;;2.00;;
17422;SDS011;8829;47.932;7.810;2023-07-24T12:51:55;2.27;;;2.07;;
17422;SDS011;8829;47.932;7.810;2023-07-24T12:54:21;4.53;;;1.80;;
17422;SDS011;8829;47.932;7.810;2023-07-24T12:56:48;2.27;;;2.07;;
17422;SDS011;8829;47.932;7.810;2023-07-24T12:59:16;2.30;;;2.10;;
17422;SDS011;8829;47.932;7.810;2023-07-24T13:01:43;2.83;;;2.10;;
17422;SDS011;8829;47.932;7.810;2023-07-24T13:04:09;2.60;;;2.40;;
17422;SDS011;8829;47.932;7.810;2023-07-24T13:06:38;3.17;;;2.70;;
17422;SDS011;8829;47.932;7.810;2023-07-24T13:09:05;3.60;;;2.30;;
17422;SDS011;8829;47.932;7.810;2023-07-24T13:11:31;3.40;;;3.10;;
17422;SDS011;8829;47.932;7.810;2023-07-24T13:13:58;3.33;;;3.03;;
17422;SDS011;8829;47.932;7.810;2023-07-24T13:16:25;2.83;;;2.60;;
17422;SDS011;8829;47.932;7.810;2023-07-24T13:18:52;3.70;;;3.23;;
17422;SDS011;8829;47.932;7.810;2023-07-24T13:21:19;3.17;;;2.90;;
17422;SDS011;8829;47.932;7.810;2023-07-24T13:23:47;3.50;;;3.20;;
17422;SDS011;8829;47.932;7.810;2023-07-24T13:26:14;4.80;;;3.70;;
17422;SDS011;8829;47.932;7.810;2023-07-24T13:28:41;5.67;;;3.30;;
17422;SDS011;8829;47.932;7.810;2023-07-24T13:31:12;4.67;;;3.77;;
17422;SDS011;8829;47.932;7.810;2023-07-24T13:33:40;3.67;;;3.37;;
17422;SDS011;8829;47.932;7.810;2023-07-24T13:36:06;6.57;;;4.07;;
17422;SDS011;8829;47.932;7.810;2023-07-24T13:38:33;5.10;;;4.00;;
17422;SDS011;8829;47.932;7.810;2023-07-24T13:41:01;6.20;;;3.37;;
17422;SDS011;8829;47.932;7.810;2023-07-24T13:43:29;4.63;;;3.70;;
17422;SDS011;8829;47.932;7.810;2023-07-24T13:45:56;4.80;;;3.50;;
17422;SDS011;8829;47.932;7.810;2023-07-24T13:48:23;4.17;;;3.27;;
17422;SDS011;8829;47.932;7.810;2023-07-24T13:50:50;3.47;;;3.17;;
17422;SDS011;8829;47.932;7.810;2023-07-24T13:53:17;3.63;;;3.30;;
17422;SDS011;8829;47.932;7.810;2023-07-24T13:55:43;4.53;;;3.87;;
17422;SDS011;8829;47.932;7.810;2023-07-24T13:58:12;4.00;;;3.60;;
17422;SDS011;8829;47.932;7.810;2023-07-24T14:00:38;3.90;;;3.50;;
17422;SDS011;8829;47.932;7.810;2023-07-24T14:03:05;4.93;;;4.10;;
17422;SDS011;8829;47.932;7.810;2023-07-24T14:05:32;4.30;;;3.90;;
17422;SDS011;8829;47.932;7.810;2023-07-24T14:08:01;5.50;;;3.30;;
17422;SDS011;8829;47.932;7.810;2023-07-24T14:10:28;3.13;;;2.83;;
17422;SDS011;8829;47.932;7.810;2023-07-24T14:12:55;6.43;;;3.30;;
17422;SDS011;8829;47.932;7.810;2023-07-24T14:15:23;3.70;;;2.67;;
17422;SDS011;8829;47.932;7.810;2023-07-24T14:17:50;5.80;;;3.50;;
17422;SDS011;8829;47.932;7.810;2023-07-24T14:20:17;5.03;;;3.07;;
17422;SDS011;8829;47.932;7.810;2023-07-24T14:22:43;4.37;;;3.67;;
17422;SDS011;8829;47.932;7.810;2023-07-24T14:25:10;3.33;;;3.03;;
17422;SDS011;8829;47.932;7.810;2023-07-24T14:27:37;4.07;;;3.30;;
17422;SDS011;8829;47.932;7.810;2023-07-24T14:30:04;3.73;;;3.33;;
17422;SDS011;8829;47.932;7.810;2023-07-24T14:32:33;5.27;;;3.60;;
17422;SDS011;8829;47.932;7.810;2023-07-24T14:35:00;4.03;;;3.30;;
17422;SDS011;8829;47.932;7.810;2023-07-24T14:37:26;3.60;;;3.30;;
17422;SDS011;8829;47.932;7.810;2023-07-24T14:39:53;4.10;;;3.47;;
17422;SDS011;8829;47.932;7.810;2023-07-24T14:42:20;3.00;;;2.80;;
17422;SDS011;8829;47.932;7.810;2023-07-24T14:44:46;4.27;;;3.20;;
17422;SDS011;8829;47.932;7.810;2023-07-24T14:47:13;3.83;;;3.00;;
17422;SDS011;8829;47.932;7.810;2023-07-24T14:49:41;3.00;;;2.70;;
17422;SDS011;8829;47.932;7.810;2023-07-24T14:52:08;3.27;;;2.57;;
17422;SDS011;8829;47.932;7.810;2023-07-24T14:54:35;3.77;;;2.67;;
17422;SDS011;8829;47.932;7.810;2023-07-24T14:57:02;2.57;;;2.33;;
17422;SDS011;8829;47.932;7.810;2023-07-24T14:59:28;2.80;;;2.60;;
17422;SDS011;8829;47.932;7.810;2023-07-24T15:01:55;3.00;;;2.70;;